sensor_id;sensor_type;location;lat;lon;timestamp;P1;durP1;ratioP1;P2;durP2;ratioP2
10050;SDS011;5065;46.942;7.432;2024-03-07T00:01:28;3.40;;;3.07;;
10050;SDS011;5065;46.942;7.432;2024-03-07T00:03:55;4.13;;;3.17;;
10050;SDS011;5065;46.942;7.432;2024-03-07T00:06:22;3.03;;;2.60;;
10050;SDS011;5065;46.942;7.432;2024-03-07T00:08:49;3.03;;;2.67;;
10050;SDS011;5065;46.942;7.432;2024-03-07T00:11:16;2.63;;;2.40;;
10050;SDS011;5065;46.942;7.432;2024-03-07T00:13:44;3.97;;;2.73;;
10050;SDS011;5065;46.942;7.432;2024-03-07T00:16:12;3.13;;;2.87;;
10050;SDS011;5065;46.942;7.432;2024-03-07T00:18:39;3.80;;;3.50;;
10050;SDS011;5065;46.942;7.432;2024-03-07T00:21:06;2.93;;;2.50;;
10050;SDS011;5065;46.942;7.432;2024-03-07T00:23:33;3.33;;;2.80;;
10050;SDS011;5065;46.942;7.432;2024-03-07T00:26:00;4.63;;;3.03;;
10050;SDS011;5065;46.942;7.432;2024-03-07T00:28:28;3.17;;;2.73;;
10050;SDS011;5065;46.942;7.432;2024-03-07T00:30:57;3.80;;;3.37;;
10050;SDS011;5065;46.942;7.432;2024-03-07T00:33:26;4.00;;;3.30;;
10050;SDS011;5065;46.942;7.432;2024-03-07T00:35:53;3.30;;;3.00;;
10050;SDS011;5065;46.942;7.432;2024-03-07T00:38:20;3.03;;;2.77;;
10050;SDS011;5065;46.942;7.432;2024-03-07T00:40:48;4.00;;;3.20;;
10050;SDS011;5065;46.942;7.432;2024-03-07T00:43:15;3.00;;;2.70;;
10050;SDS011;5065;46.942;7.432;2024-03-07T00:45:42;3.43;;;3.07;;
10050;SDS011;5065;46.942;7.432;2024-03-07T00:48:09;4.77;;;3.33;;
10050;SDS011;5065;46.942;7.432;2024-03-07T00:50:38;3.23;;;2.63;;
10050;SDS011;5065;46.942;7.432;2024-03-07T00:53:07;5.30;;;3.17;;
10050;SDS011;5065;46.942;7.432;2024-03-07T00:55:35;3.53;;;3.10;;
10050;SDS011;5065;46.942;7.432;2024-03-07T00:58:02;4.20;;;3.53;;
10050;SDS011;5065;46.942;7.432;2024-03-07T01:00:30;3.87;;;3.37;;
10050;SDS011;5065;46.942;7.432;2024-03-07T01:02:57;3.00;;;2.63;;
10050;SDS011;5065;46.942;7.432;2024-03-07T01:05:24;3.53;;;3.23;;
10050;SDS011;5065;46.942;7.432;2024-03-07T01:07:52;3.70;;;2.83;;
10050;SDS011;5065;46.942;7.432;2024-03-07T01:10:20;4.53;;;3.33;;
10050;SDS011;5065;46.942;7.432;2024-03-07T01:12:48;4.77;;;3.60;;
10050;SDS011;5065;46.942;7.432;2024-03-07T01:15:16;3.40;;;3.10;;
10050;SDS011;5065;46.942;7.432;2024-03-07T01:17:43;3.53;;;2.97;;
10050;SDS011;5065;46.942;7.432;2024-03-07T01:20:11;5.50;;;3.03;;
10050;SDS011;5065;46.942;7.432;2024-03-07T01:22:38;3.67;;;3.00;;
10050;SDS011;5065;46.942;7.432;2024-03-07T01:25:07;3.50;;;2.87;;
10050;SDS011;5065;46.942;7.432;2024-03-07T01:27:34;2.87;;;2.57;;
10050;SDS011;5065;46.942;7.432;2024-03-07T01:30:01;3.50;;;3.20;;
10050;SDS011;5065;46.942;7.432;2024-03-07T01:32:29;4.07;;;2.63;;
10050;SDS011;5065;46.942;7.432;2024-03-07T01:34:56;3.67;;;3.07;;
10050;SDS011;5065;46.942;7.432;2024-03-07T01:37:23;3.00;;;2.70;;
10050;SDS011;5065;46.942;7.432;2024-03-07T01:39:50;3.73;;;3.13;;
10050;SDS011;5065;46.942;7.432;2024-03-07T01:42:19;3.30;;;3.00;;
10050;SDS011;5065;46.942;7.432;2024-03-07T01:44:46;3.23;;;2.93;;
10050;SDS011;5065;46.942;7.432;2024-03-07T01:47:13;4.30;;;3.20;;
10050;SDS011;5065;46.942;7.432;2024-03-07T01:49:40;6.03;;;3.77;;
10050;SDS011;5065;46.942;7.432;2024-03-07T01:52:08;4.20;;;3.50;;
10050;SDS011;5065;46.942;7.432;2024-03-07T01:54:37;4.43;;;3.40;;
10050;SDS011;5065;46.942;7.432;2024-03-07T01:57:04;5.33;;;3.30;;
10050;SDS011;5065;46.942;7.432;2024-03-07T01:59:33;3.70;;;3.30;;
10050;SDS011;5065;46.942;7.432;2024-03-07T02:02:01;3.30;;;3.00;;
10050;SDS011;5065;46.942;7.432;2024-03-07T02:04:28;3.77;;;3.40;;
10050;SDS011;5065;46.942;7.432;2024-03-07T02:06:56;3.27;;;2.97;;
10050;SDS011;5065;46.942;7.432;2024-03-07T02:09:23;4.40;;;4.00;;
10050;SDS011;5065;46.942;7.432;2024-03-07T02:11:51;2.93;;;2.63;;
10050;SDS011;5065;46.942;7.432;2024-03-07T02:14:18;3.90;;;3.50;;
10050;SDS011;5065;46.942;7.432;2024-03-07T02:16:46;4.23;;;3.80;;
10050;SDS011;5065;46.942;7.432;2024-03-07T02:19:14;6.20;;;4.43;;
10050;SDS011;5065;46.942;7.432;2024-03-07T02:21:42;7.17;;;4.60;;
10050;SDS011;5065;46.942;7.432;2024-03-07T02:24:09;6.03;;;4.33;;
10050;SDS011;5065;46.942;7.432;2024-03-07T02:26:37;5.57;;;4.63;;
10050;SDS011;5065;46.942;7.432;2024-03-07T02:29:04;4.67;;;3.93;;
10050;SDS011;5065;46.942;7.432;2024-03-07T02:31:31;5.73;;;4.77;;
10050;SDS011;5065;46.942;7.432;2024-03-07T02:34:02;5.23;;;4.13;;
10050;SDS011;5065;46.942;7.432;2024-03-07T02:36:29;4.13;;;3.67;;
10050;SDS011;5065;46.942;7.432;2024-03-07T02:38:58;4.27;;;3.77;;
10050;SDS011;5065;46.942;7.432;2024-03-07T02:41:26;4.33;;;3.93;;
10050;SDS011;5065;46.942;7.432;2024-03-07T02:43:53;4.30;;;3.90;;
10050;SDS011;5065;46.942;7.432;2024-03-07T02:46:20;4.00;;;3.60;;
10050;SDS011;5065;46.942;7.432;2024-03-07T02:48:47;3.63;;;3.33;;
10050;SDS011;5065;46.942;7.432;2024-03-07T02:51:14;4.33;;;3.00;;
10050;SDS011;5065;46.942;7.432;2024-03-07T02:53:41;3.97;;;3.40;;
10050;SDS011;5065;46.942;7.432;2024-03-07T02:56:10;3.83;;;3.37;;
10050;SDS011;5065;46.942;7.432;2024-03-07T02:58:37;3.50;;;3.20;;
10050;SDS011;5065;46.942;7.432;2024-03-07T03:01:04;3.83;;;3.33;;
10050;SDS011;5065;46.942;7.432;2024-03-07T03:03:31;3.70;;;3.13;;
10050;SDS011;5065;46.942;7.432;2024-03-07T03:05:58;3.77;;;3.30;;
10050;SDS011;5065;46.942;7.432;2024-03-07T03:08:26;3.93;;;3.27;;
10050;SDS011;5065;46.942;7.432;2024-03-07T03:10:54;3.80;;;3.33;;
10050;SDS011;5065;46.942;7.432;2024-03-07T03:13:24;4.07;;;3.57;;
10050;SDS011;5065;46.942;7.432;2024-03-07T03:15:52;3.50;;;3.20;;
10050;SDS011;5065;46.942;7.432;2024-03-07T03:18:20;3.30;;;2.53;;
10050;SDS011;5065;46.942;7.432;2024-03-07T03:20:48;2.67;;;2.43;;
10050;SDS011;5065;46.942;7.432;2024-03-07T03:23:15;2.70;;;2.40;;
10050;SDS011;5065;46.942;7.432;2024-03-07T03:25:44;3.17;;;2.73;;
10050;SDS011;5065;46.942;7.432;2024-03-07T03:28:13;2.73;;;2.53;;
10050;SDS011;5065;46.942;7.432;2024-03-07T03:30:41;2.37;;;2.17;;
10050;SDS011;5065;46.942;7.432;2024-03-07T03:33:09;2.27;;;2.07;;
10050;SDS011;5065;46.942;7.432;2024-03-07T03:35:36;2.90;;;2.30;;
10050;SDS011;5065;46.942;7.432;2024-03-07T03:38:03;2.40;;;2.20;;
10050;SDS011;5065;46.942;7.432;2024-03-07T03:40:31;3.20;;;2.67;;
10050;SDS011;5065;46.942;7.432;2024-03-07T03:42:59;2.93;;;2.57;;
10050;SDS011;5065;46.942;7.432;2024-03-07T03:45:27;2.80;;;2.53;;
10050;SDS011;5065;46.942;7.432;2024-03-07T03:47:55;2.87;;;2.60;;
10050;SDS011;5065;46.942;7.432;2024-03-07T03:50:22;9.27;;;2.47;;
10050;SDS011;5065;46.942;7.432;2024-03-07T03:52:49;3.20;;;2.60;;
10050;SDS011;5065;46.942;7.432;2024-03-07T03:55:17;3.33;;;2.50;;
10050;SDS011;5065;46.942;7.432;2024-03-07T03:57:44;2.60;;;2.40;;
10050;SDS011;5065;46.942;7.432;2024-03-07T04:00:13;2.80;;;2.57;;
10050;SDS011;5065;46.942;7.432;2024-03-07T04:02:42;3.27;;;2.90;;
10050;SDS011;5065;46.942;7.432;2024-03-07T04:05:14;2.90;;;2.60;;
10050;SDS011;5065;46.942;7.432;2024-03-07T04:07:42;3.07;;;2.67;;
10050;SDS011;5065;46.942;7.432;2024-03-07T04:10:10;3.27;;;2.30;;
10050;SDS011;5065;46.942;7.432;2024-03-07T04:12:38;8.13;;;4.50;;
10050;SDS011;5065;46.942;7.432;2024-03-07T04:15:06;2.43;;;2.23;;
10050;SDS011;5065;46.942;7.432;2024-03-07T04:17:34;4.13;;;2.83;;
10050;SDS011;5065;46.942;7.432;2024-03-07T04:20:02;5.97;;;2.50;;
10050;SDS011;5065;46.942;7.432;2024-03-07T04:22:32;3.30;;;2.80;;
10050;SDS011;5065;46.942;7.432;2024-03-07T04:24:59;3.20;;;2.90;;
10050;SDS011;5065;46.942;7.432;2024-03-07T04:27:26;7.33;;;2.90;;
10050;SDS011;5065;46.942;7.432;2024-03-07T04:29:54;2.53;;;2.33;;
10050;SDS011;5065;46.942;7.432;2024-03-07T04:32:21;3.50;;;3.17;;
10050;SDS011;5065;46.942;7.432;2024-03-07T04:34:48;5.20;;;3.30;;
10050;SDS011;5065;46.942;7.432;2024-03-07T04:37:15;3.90;;;3.03;;
10050;SDS011;5065;46.942;7.432;2024-03-07T04:39:43;4.07;;;3.20;;
10050;SDS011;5065;46.942;7.432;2024-03-07T04:42:10;6.70;;;4.40;;
10050;SDS011;5065;46.942;7.432;2024-03-07T04:44:38;5.50;;;3.33;;
10050;SDS011;5065;46.942;7.432;2024-03-07T04:47:05;3.83;;;3.13;;
10050;SDS011;5065;46.942;7.432;2024-03-07T04:49:32;3.40;;;2.93;;
10050;SDS011;5065;46.942;7.432;2024-03-07T04:52:01;4.17;;;3.43;;
10050;SDS011;5065;46.942;7.432;2024-03-07T04:54:30;4.07;;;3.67;;
10050;SDS011;5065;46.942;7.432;2024-03-07T04:57:02;4.07;;;3.50;;
10050;SDS011;5065;46.942;7.432;2024-03-07T04:59:29;3.90;;;2.97;;
10050;SDS011;5065;46.942;7.432;2024-03-07T05:01:56;4.13;;;3.47;;
10050;SDS011;5065;46.942;7.432;2024-03-07T05:04:23;5.60;;;3.80;;
10050;SDS011;5065;46.942;7.432;2024-03-07T05:06:54;3.37;;;3.07;;
10050;SDS011;5065;46.942;7.432;2024-03-07T05:09:22;4.23;;;3.83;;
10050;SDS011;5065;46.942;7.432;2024-03-07T05:11:50;5.70;;;3.73;;
10050;SDS011;5065;46.942;7.432;2024-03-07T05:14:19;4.53;;;3.07;;
10050;SDS011;5065;46.942;7.432;2024-03-07T05:16:47;4.33;;;3.77;;
10050;SDS011;5065;46.942;7.432;2024-03-07T05:19:30;4.20;;;3.80;;
10050;SDS011;5065;46.942;7.432;2024-03-07T05:21:58;3.63;;;3.20;;
10050;SDS011;5065;46.942;7.432;2024-03-07T05:24:25;4.43;;;3.30;;
10050;SDS011;5065;46.942;7.432;2024-03-07T05:26:52;4.23;;;3.37;;
10050;SDS011;5065;46.942;7.432;2024-03-07T05:29:21;4.17;;;3.70;;
10050;SDS011;5065;46.942;7.432;2024-03-07T05:31:48;5.93;;;4.10;;
10050;SDS011;5065;46.942;7.432;2024-03-07T05:34:15;4.70;;;3.70;;
10050;SDS011;5065;46.942;7.432;2024-03-07T05:36:44;4.50;;;4.10;;
10050;SDS011;5065;46.942;7.432;2024-03-07T05:39:12;3.93;;;3.50;;
10050;SDS011;5065;46.942;7.432;2024-03-07T05:41:40;3.53;;;3.00;;
10050;SDS011;5065;46.942;7.432;2024-03-07T05:44:10;4.57;;;3.60;;
10050;SDS011;5065;46.942;7.432;2024-03-07T05:46:38;9.90;;;4.03;;
10050;SDS011;5065;46.942;7.432;2024-03-07T05:49:11;5.80;;;4.00;;
10050;SDS011;5065;46.942;7.432;2024-03-07T05:51:38;6.03;;;4.13;;
10050;SDS011;5065;46.942;7.432;2024-03-07T05:54:07;4.10;;;3.63;;
10050;SDS011;5065;46.942;7.432;2024-03-07T05:56:34;4.83;;;3.60;;
10050;SDS011;5065;46.942;7.432;2024-03-07T05:59:01;5.17;;;3.70;;
10050;SDS011;5065;46.942;7.432;2024-03-07T06:01:30;4.27;;;3.60;;
10050;SDS011;5065;46.942;7.432;2024-03-07T06:04:00;4.73;;;3.73;;
10050;SDS011;5065;46.942;7.432;2024-03-07T06:06:30;4.30;;;3.63;;
10050;SDS011;5065;46.942;7.432;2024-03-07T06:08:58;3.87;;;3.43;;
10050;SDS011;5065;46.942;7.432;2024-03-07T06:11:26;3.53;;;3.20;;
10050;SDS011;5065;46.942;7.432;2024-03-07T06:13:53;5.70;;;4.00;;
10050;SDS011;5065;46.942;7.432;2024-03-07T06:16:20;3.60;;;3.20;;
10050;SDS011;5065;46.942;7.432;2024-03-07T06:18:47;4.47;;;3.17;;
10050;SDS011;5065;46.942;7.432;2024-03-07T06:21:15;4.87;;;3.53;;
10050;SDS011;5065;46.942;7.432;2024-03-07T06:23:44;4.50;;;3.47;;
10050;SDS011;5065;46.942;7.432;2024-03-07T06:26:13;4.50;;;4.03;;
10050;SDS011;5065;46.942;7.432;2024-03-07T06:28:42;3.77;;;3.20;;
10050;SDS011;5065;46.942;7.432;2024-03-07T06:31:10;5.57;;;3.50;;
10050;SDS011;5065;46.942;7.432;2024-03-07T06:33:37;3.43;;;3.03;;
10050;SDS011;5065;46.942;7.432;2024-03-07T06:36:04;4.13;;;3.70;;
10050;SDS011;5065;46.942;7.432;2024-03-07T06:38:32;3.70;;;3.00;;
10050;SDS011;5065;46.942;7.432;2024-03-07T06:41:00;3.50;;;2.67;;
10050;SDS011;5065;46.942;7.432;2024-03-07T06:43:27;3.90;;;3.50;;
10050;SDS011;5065;46.942;7.432;2024-03-07T06:45:55;4.03;;;3.03;;
10050;SDS011;5065;46.942;7.432;2024-03-07T06:48:22;4.23;;;3.20;;
10050;SDS011;5065;46.942;7.432;2024-03-07T06:50:49;3.10;;;2.60;;
10050;SDS011;5065;46.942;7.432;2024-03-07T06:53:17;4.13;;;3.13;;
10050;SDS011;5065;46.942;7.432;2024-03-07T06:55:46;3.77;;;3.43;;
10050;SDS011;5065;46.942;7.432;2024-03-07T06:58:14;5.53;;;2.73;;
10050;SDS011;5065;46.942;7.432;2024-03-07T07:00:42;3.93;;;3.27;;
10050;SDS011;5065;46.942;7.432;2024-03-07T07:03:10;4.43;;;2.93;;
10050;SDS011;5065;46.942;7.432;2024-03-07T07:05:39;4.13;;;2.83;;
10050;SDS011;5065;46.942;7.432;2024-03-07T07:08:07;3.10;;;2.80;;
10050;SDS011;5065;46.942;7.432;2024-03-07T07:10:34;3.50;;;2.80;;
10050;SDS011;5065;46.942;7.432;2024-03-07T07:13:03;2.53;;;2.30;;
10050;SDS011;5065;46.942;7.432;2024-03-07T07:15:30;4.33;;;3.27;;
10050;SDS011;5065;46.942;7.432;2024-03-07T07:17:58;3.87;;;2.87;;
10050;SDS011;5065;46.942;7.432;2024-03-07T07:20:27;4.67;;;2.50;;
10050;SDS011;5065;46.942;7.432;2024-03-07T07:22:54;4.07;;;2.97;;
10050;SDS011;5065;46.942;7.432;2024-03-07T07:25:23;2.53;;;2.33;;
10050;SDS011;5065;46.942;7.432;2024-03-07T07:27:52;3.37;;;2.67;;
10050;SDS011;5065;46.942;7.432;2024-03-07T07:30:21;2.80;;;2.50;;
10050;SDS011;5065;46.942;7.432;2024-03-07T07:32:50;2.67;;;2.40;;
10050;SDS011;5065;46.942;7.432;2024-03-07T07:35:19;9.43;;;3.20;;
10050;SDS011;5065;46.942;7.432;2024-03-07T07:37:47;5.63;;;2.70;;
10050;SDS011;5065;46.942;7.432;2024-03-07T07:40:15;3.23;;;2.63;;
10050;SDS011;5065;46.942;7.432;2024-03-07T07:42:43;4.07;;;3.07;;
10050;SDS011;5065;46.942;7.432;2024-03-07T07:45:12;3.00;;;2.60;;
10050;SDS011;5065;46.942;7.432;2024-03-07T07:47:42;3.53;;;2.87;;
10050;SDS011;5065;46.942;7.432;2024-03-07T07:50:10;4.20;;;2.90;;
10050;SDS011;5065;46.942;7.432;2024-03-07T07:52:42;3.40;;;2.70;;
10050;SDS011;5065;46.942;7.432;2024-03-07T07:55:10;5.10;;;3.33;;
10050;SDS011;5065;46.942;7.432;2024-03-07T07:57:41;2.70;;;2.37;;
10050;SDS011;5065;46.942;7.432;2024-03-07T08:00:10;2.57;;;2.37;;
10050;SDS011;5065;46.942;7.432;2024-03-07T08:02:48;2.83;;;2.30;;
10050;SDS011;5065;46.942;7.432;2024-03-07T08:05:17;2.70;;;2.23;;
10050;SDS011;5065;46.942;7.432;2024-03-07T08:07:44;3.43;;;2.63;;
10050;SDS011;5065;46.942;7.432;2024-03-07T08:10:13;2.87;;;2.53;;
10050;SDS011;5065;46.942;7.432;2024-03-07T08:12:41;5.07;;;2.50;;
10050;SDS011;5065;46.942;7.432;2024-03-07T08:15:09;3.50;;;2.70;;
10050;SDS011;5065;46.942;7.432;2024-03-07T08:17:41;3.67;;;2.60;;
10050;SDS011;5065;46.942;7.432;2024-03-07T08:20:12;2.63;;;2.13;;
10050;SDS011;5065;46.942;7.432;2024-03-07T08:22:40;2.80;;;2.47;;
10050;SDS011;5065;46.942;7.432;2024-03-07T08:25:09;3.80;;;3.30;;
10050;SDS011;5065;46.942;7.432;2024-03-07T08:27:37;2.90;;;2.50;;
10050;SDS011;5065;46.942;7.432;2024-03-07T08:30:05;2.87;;;2.40;;
10050;SDS011;5065;46.942;7.432;2024-03-07T08:32:38;3.50;;;2.63;;
10050;SDS011;5065;46.942;7.432;2024-03-07T08:35:05;4.07;;;3.07;;
10050;SDS011;5065;46.942;7.432;2024-03-07T08:37:36;6.60;;;2.90;;
10050;SDS011;5065;46.942;7.432;2024-03-07T08:40:04;3.40;;;2.50;;
10050;SDS011;5065;46.942;7.432;2024-03-07T08:42:33;3.83;;;2.90;;
10050;SDS011;5065;46.942;7.432;2024-03-07T08:45:00;2.97;;;2.50;;
10050;SDS011;5065;46.942;7.432;2024-03-07T08:47:29;2.63;;;2.43;;
10050;SDS011;5065;46.942;7.432;2024-03-07T08:49:57;3.03;;;2.50;;
10050;SDS011;5065;46.942;7.432;2024-03-07T08:52:25;3.10;;;2.73;;
10050;SDS011;5065;46.942;7.432;2024-03-07T08:54:54;2.37;;;2.03;;
10050;SDS011;5065;46.942;7.432;2024-03-07T08:57:22;2.60;;;2.03;;
10050;SDS011;5065;46.942;7.432;2024-03-07T08:59:50;3.10;;;2.33;;
10050;SDS011;5065;46.942;7.432;2024-03-07T09:02:17;2.67;;;2.40;;
10050;SDS011;5065;46.942;7.432;2024-03-07T09:04:44;3.90;;;2.33;;
10050;SDS011;5065;46.942;7.432;2024-03-07T09:07:11;3.40;;;2.30;;
10050;SDS011;5065;46.942;7.432;2024-03-07T09:09:40;4.07;;;2.90;;
10050;SDS011;5065;46.942;7.432;2024-03-07T09:12:10;4.93;;;2.20;;
10050;SDS011;5065;46.942;7.432;2024-03-07T09:14:37;3.83;;;3.23;;
10050;SDS011;5065;46.942;7.432;2024-03-07T09:17:05;3.63;;;2.73;;
10050;SDS011;5065;46.942;7.432;2024-03-07T09:19:32;3.07;;;2.43;;
10050;SDS011;5065;46.942;7.432;2024-03-07T09:21:59;1.90;;;1.73;;
10050;SDS011;5065;46.942;7.432;2024-03-07T09:24:30;2.60;;;2.10;;
10050;SDS011;5065;46.942;7.432;2024-03-07T09:26:57;2.40;;;1.93;;
10050;SDS011;5065;46.942;7.432;2024-03-07T09:29:26;2.43;;;2.10;;
10050;SDS011;5065;46.942;7.432;2024-03-07T09:31:53;2.70;;;1.97;;
10050;SDS011;5065;46.942;7.432;2024-03-07T09:34:23;2.10;;;1.73;;
10050;SDS011;5065;46.942;7.432;2024-03-07T09:36:51;2.70;;;2.27;;
10050;SDS011;5065;46.942;7.432;2024-03-07T09:39:19;2.87;;;2.57;;
10050;SDS011;5065;46.942;7.432;2024-03-07T09:41:46;2.70;;;2.20;;
10050;SDS011;5065;46.942;7.432;2024-03-07T09:44:16;2.40;;;1.80;;
10050;SDS011;5065;46.942;7.432;2024-03-07T09:46:49;2.57;;;2.00;;
10050;SDS011;5065;46.942;7.432;2024-03-07T09:49:18;2.73;;;2.00;;
10050;SDS011;5065;46.942;7.432;2024-03-07T09:51:46;2.23;;;2.03;;
10050;SDS011;5065;46.942;7.432;2024-03-07T09:54:17;2.93;;;2.00;;
10050;SDS011;5065;46.942;7.432;2024-03-07T09:56:45;3.10;;;2.20;;
10050;SDS011;5065;46.942;7.432;2024-03-07T09:59:14;2.87;;;2.10;;
10050;SDS011;5065;46.942;7.432;2024-03-07T10:01:43;2.83;;;2.37;;
10050;SDS011;5065;46.942;7.432;2024-03-07T10:04:15;1.73;;;1.60;;
10050;SDS011;5065;46.942;7.432;2024-03-07T10:06:49;3.70;;;2.57;;
10050;SDS011;5065;46.942;7.432;2024-03-07T10:09:18;3.80;;;2.20;;
10050;SDS011;5065;46.942;7.432;2024-03-07T10:11:54;2.80;;;2.20;;
10050;SDS011;5065;46.942;7.432;2024-03-07T10:14:23;4.40;;;3.07;;
10050;SDS011;5065;46.942;7.432;2024-03-07T10:16:50;3.43;;;2.70;;
10050;SDS011;5065;46.942;7.432;2024-03-07T10:19:23;2.77;;;2.30;;
10050;SDS011;5065;46.942;7.432;2024-03-07T10:21:50;2.33;;;2.13;;
10050;SDS011;5065;46.942;7.432;2024-03-07T10:24:23;2.47;;;1.80;;
10050;SDS011;5065;46.942;7.432;2024-03-07T10:26:51;3.87;;;2.20;;
10050;SDS011;5065;46.942;7.432;2024-03-07T10:29:18;2.10;;;1.90;;
10050;SDS011;5065;46.942;7.432;2024-03-07T10:31:46;2.67;;;1.70;;
10050;SDS011;5065;46.942;7.432;2024-03-07T10:34:13;1.57;;;1.40;;
10050;SDS011;5065;46.942;7.432;2024-03-07T10:36:43;1.53;;;1.43;;
10050;SDS011;5065;46.942;7.432;2024-03-07T10:39:11;2.07;;;1.70;;
10050;SDS011;5065;46.942;7.432;2024-03-07T10:41:42;1.90;;;1.70;;
10050;SDS011;5065;46.942;7.432;2024-03-07T10:44:16;2.07;;;1.53;;
10050;SDS011;5065;46.942;7.432;2024-03-07T10:46:50;1.77;;;1.30;;
10050;SDS011;5065;46.942;7.432;2024-03-07T10:49:19;1.90;;;1.77;;
10050;SDS011;5065;46.942;7.432;2024-03-07T10:51:54;2.37;;;2.03;;
10050;SDS011;5065;46.942;7.432;2024-03-07T10:54:30;2.73;;;1.77;;
10050;SDS011;5065;46.942;7.432;2024-03-07T10:57:09;1.80;;;1.37;;
10050;SDS011;5065;46.942;7.432;2024-03-07T10:59:49;1.93;;;1.50;;
10050;SDS011;5065;46.942;7.432;2024-03-07T11:02:22;1.97;;;1.80;;
10050;SDS011;5065;46.942;7.432;2024-03-07T11:04:57;2.23;;;1.80;;
10050;SDS011;5065;46.942;7.432;2024-03-07T11:07:27;1.67;;;1.47;;
10050;SDS011;5065;46.942;7.432;2024-03-07T11:09:55;1.60;;;1.50;;
10050;SDS011;5065;46.942;7.432;2024-03-07T11:12:24;2.33;;;1.90;;
10050;SDS011;5065;46.942;7.432;2024-03-07T11:14:53;1.37;;;1.27;;
10050;SDS011;5065;46.942;7.432;2024-03-07T11:17:22;2.57;;;1.93;;
10050;SDS011;5065;46.942;7.432;2024-03-07T11:19:50;1.47;;;1.37;;
10050;SDS011;5065;46.942;7.432;2024-03-07T11:22:31;1.83;;;1.70;;
10050;SDS011;5065;46.942;7.432;2024-03-07T11:25:02;2.33;;;1.63;;
10050;SDS011;5065;46.942;7.432;2024-03-07T11:27:33;2.27;;;1.73;;
10050;SDS011;5065;46.942;7.432;2024-03-07T11:30:06;1.53;;;1.23;;
10050;SDS011;5065;46.942;7.432;2024-03-07T11:32:34;1.83;;;1.73;;
10050;SDS011;5065;46.942;7.432;2024-03-07T11:35:03;1.63;;;1.40;;
10050;SDS011;5065;46.942;7.432;2024-03-07T11:37:41;2.00;;;1.50;;
10050;SDS011;5065;46.942;7.432;2024-03-07T11:40:11;2.03;;;1.77;;
10050;SDS011;5065;46.942;7.432;2024-03-07T11:42:45;1.90;;;1.80;;
10050;SDS011;5065;46.942;7.432;2024-03-07T11:45:14;3.70;;;2.40;;
10050;SDS011;5065;46.942;7.432;2024-03-07T11:47:50;2.60;;;2.00;;
10050;SDS011;5065;46.942;7.432;2024-03-07T11:50:23;2.30;;;2.03;;
10050;SDS011;5065;46.942;7.432;2024-03-07T11:52:52;5.07;;;2.75;;
10050;SDS011;5065;46.942;7.432;2024-03-07T11:55:20;3.93;;;2.90;;
10050;SDS011;5065;46.942;7.432;2024-03-07T11:57:48;3.13;;;2.83;;
10050;SDS011;5065;46.942;7.432;2024-03-07T12:00:17;4.00;;;2.90;;
10050;SDS011;5065;46.942;7.432;2024-03-07T12:02:45;4.78;;;3.50;;
10050;SDS011;5065;46.942;7.432;2024-03-07T12:05:13;3.90;;;2.57;;
10050;SDS011;5065;46.942;7.432;2024-03-07T12:07:42;2.60;;;2.00;;
10050;SDS011;5065;46.942;7.432;2024-03-07T12:10:11;4.97;;;2.90;;
10050;SDS011;5065;46.942;7.432;2024-03-07T12:12:38;3.83;;;2.78;;
10050;SDS011;5065;46.942;7.432;2024-03-07T12:15:06;3.37;;;2.90;;
10050;SDS011;5065;46.942;7.432;2024-03-07T12:17:43;3.40;;;2.72;;
10050;SDS011;5065;46.942;7.432;2024-03-07T12:20:11;2.60;;;2.40;;
10050;SDS011;5065;46.942;7.432;2024-03-07T12:22:54;3.10;;;2.10;;
10050;SDS011;5065;46.942;7.432;2024-03-07T12:25:24;2.90;;;2.40;;
10050;SDS011;5065;46.942;7.432;2024-03-07T12:28:01;3.50;;;2.20;;
10050;SDS011;5065;46.942;7.432;2024-03-07T12:30:31;2.57;;;1.80;;
10050;SDS011;5065;46.942;7.432;2024-03-07T12:33:00;2.43;;;1.87;;
10050;SDS011;5065;46.942;7.432;2024-03-07T12:35:30;2.47;;;2.10;;
10050;SDS011;5065;46.942;7.432;2024-03-07T12:37:57;1.83;;;1.73;;
10050;SDS011;5065;46.942;7.432;2024-03-07T12:40:26;2.10;;;1.50;;
10050;SDS011;5065;46.942;7.432;2024-03-07T12:42:59;2.17;;;1.80;;
10050;SDS011;5065;46.942;7.432;2024-03-07T12:45:27;2.50;;;2.13;;
10050;SDS011;5065;46.942;7.432;2024-03-07T12:47:58;2.47;;;1.77;;
10050;SDS011;5065;46.942;7.432;2024-03-07T12:50:29;2.97;;;2.43;;
10050;SDS011;5065;46.942;7.432;2024-03-07T12:53:00;3.53;;;2.67;;
10050;SDS011;5065;46.942;7.432;2024-03-07T12:55:32;2.23;;;1.90;;
10050;SDS011;5065;46.942;7.432;2024-03-07T12:58:01;2.53;;;2.10;;
10050;SDS011;5065;46.942;7.432;2024-03-07T13:00:29;3.63;;;2.50;;
10050;SDS011;5065;46.942;7.432;2024-03-07T13:02:57;2.70;;;2.00;;
10050;SDS011;5065;46.942;7.432;2024-03-07T13:05:24;1.90;;;1.70;;
10050;SDS011;5065;46.942;7.432;2024-03-07T13:07:51;2.57;;;2.07;;
10050;SDS011;5065;46.942;7.432;2024-03-07T13:10:19;1.97;;;1.77;;
10050;SDS011;5065;46.942;7.432;2024-03-07T13:12:48;3.27;;;2.20;;
10050;SDS011;5065;46.942;7.432;2024-03-07T13:15:15;3.17;;;2.20;;
10050;SDS011;5065;46.942;7.432;2024-03-07T13:17:42;2.60;;;2.23;;
10050;SDS011;5065;46.942;7.432;2024-03-07T13:20:10;2.33;;;1.80;;
10050;SDS011;5065;46.942;7.432;2024-03-07T13:22:39;2.67;;;2.00;;
10050;SDS011;5065;46.942;7.432;2024-03-07T13:25:09;2.70;;;2.23;;
10050;SDS011;5065;46.942;7.432;2024-03-07T13:27:43;3.23;;;2.30;;
10050;SDS011;5065;46.942;7.432;2024-03-07T13:30:18;2.50;;;2.20;;
10050;SDS011;5065;46.942;7.432;2024-03-07T13:32:49;4.63;;;2.50;;
10050;SDS011;5065;46.942;7.432;2024-03-07T13:35:18;2.60;;;2.40;;
10050;SDS011;5065;46.942;7.432;2024-03-07T13:37:47;3.13;;;2.37;;
10050;SDS011;5065;46.942;7.432;2024-03-07T13:40:15;2.13;;;1.87;;
10050;SDS011;5065;46.942;7.432;2024-03-07T13:42:52;2.30;;;2.10;;
10050;SDS011;5065;46.942;7.432;2024-03-07T13:45:23;2.30;;;1.93;;
10050;SDS011;5065;46.942;7.432;2024-03-07T13:47:52;2.70;;;1.57;;
10050;SDS011;5065;46.942;7.432;2024-03-07T13:50:20;2.37;;;1.47;;
10050;SDS011;5065;46.942;7.432;2024-03-07T13:52:49;2.63;;;2.20;;
10050;SDS011;5065;46.942;7.432;2024-03-07T13:55:39;3.87;;;2.23;;
10050;SDS011;5065;46.942;7.432;2024-03-07T13:58:17;3.20;;;2.03;;
10050;SDS011;5065;46.942;7.432;2024-03-07T14:01:05;1.77;;;1.67;;
10050;SDS011;5065;46.942;7.432;2024-03-07T14:03:51;3.83;;;2.33;;
10050;SDS011;5065;46.942;7.432;2024-03-07T14:06:48;2.00;;;1.63;;
10050;SDS011;5065;46.942;7.432;2024-03-07T14:27:26;3.30;;;2.20;;
10050;SDS011;5065;46.942;7.432;2024-03-07T14:32:48;2.33;;;2.10;;
10050;SDS011;5065;46.942;7.432;2024-03-07T14:35:23;2.47;;;2.10;;
10050;SDS011;5065;46.942;7.432;2024-03-07T14:38:02;3.10;;;2.20;;
10050;SDS011;5065;46.942;7.432;2024-03-07T14:40:35;4.07;;;1.90;;
10050;SDS011;5065;46.942;7.432;2024-03-07T14:43:03;2.70;;;1.90;;
10050;SDS011;5065;46.942;7.432;2024-03-07T14:45:34;1.90;;;1.57;;
10050;SDS011;5065;46.942;7.432;2024-03-07T14:48:04;2.97;;;2.30;;
10050;SDS011;5065;46.942;7.432;2024-03-07T14:50:36;2.80;;;2.40;;
10050;SDS011;5065;46.942;7.432;2024-03-07T14:53:05;2.30;;;2.07;;
10050;SDS011;5065;46.942;7.432;2024-03-07T14:55:32;2.40;;;1.80;;
10050;SDS011;5065;46.942;7.432;2024-03-07T14:58:01;2.27;;;1.80;;
10050;SDS011;5065;46.942;7.432;2024-03-07T15:00:28;2.40;;;1.93;;
10050;SDS011;5065;46.942;7.432;2024-03-07T15:02:59;2.47;;;1.90;;
10050;SDS011;5065;46.942;7.432;2024-03-07T15:05:27;2.10;;;1.80;;
10050;SDS011;5065;46.942;7.432;2024-03-07T15:07:56;3.20;;;1.93;;
10050;SDS011;5065;46.942;7.432;2024-03-07T15:10:24;2.97;;;1.97;;
10050;SDS011;5065;46.942;7.432;2024-03-07T15:12:54;2.37;;;1.73;;
10050;SDS011;5065;46.942;7.432;2024-03-07T15:15:21;3.77;;;1.97;;
10050;SDS011;5065;46.942;7.432;2024-03-07T15:17:49;3.43;;;2.13;;
10050;SDS011;5065;46.942;7.432;2024-03-07T15:20:17;1.90;;;1.70;;
10050;SDS011;5065;46.942;7.432;2024-03-07T15:22:49;2.60;;;2.00;;
10050;SDS011;5065;46.942;7.432;2024-03-07T15:25:19;3.30;;;2.23;;
10050;SDS011;5065;46.942;7.432;2024-03-07T15:27:48;2.57;;;2.10;;
10050;SDS011;5065;46.942;7.432;2024-03-07T15:30:16;2.63;;;1.90;;
10050;SDS011;5065;46.942;7.432;2024-03-07T15:32:44;2.03;;;1.80;;